sensor_id;sensor_type;location;lat;lon;timestamp;temperature;humidity
32536;DHT22;18974;50.838;4.636;2023-02-16T00:01:34;6.40;99.90
32536;DHT22;18974;50.838;4.636;2023-02-16T00:04:00;6.40;99.90
32536;DHT22;18974;50.838;4.636;2023-02-16T00:06:27;6.30;99.90
32536;DHT22;18974;50.838;4.636;2023-02-16T00:08:54;6.30;99.90
32536;DHT22;18974;50.838;4.636;2023-02-16T00:11:31;6.30;99.90
32536;DHT22;18974;50.838;4.636;2023-02-16T00:14:15;6.20;99.90
32536;DHT22;18974;50.838;4.636;2023-02-16T00:16:41;6.20;99.90
32536;DHT22;18974;50.838;4.636;2023-02-16T00:19:24;6.00;99.90
32536;DHT22;18974;50.838;4.636;2023-02-16T00:21:56;6.00;99.90
32536;DHT22;18974;50.838;4.636;2023-02-16T00:24:22;5.90;99.90
32536;DHT22;18974;50.838;4.636;2023-02-16T00:26:48;6.00;99.90
32536;DHT22;18974;50.838;4.636;2023-02-16T00:31:46;5.90;99.90
32536;DHT22;18974;50.838;4.636;2023-02-16T00:34:25;6.00;99.90
32536;DHT22;18974;50.838;4.636;2023-02-16T00:36:51;5.90;99.90
32536;DHT22;18974;50.838;4.636;2023-02-16T00:39:16;5.90;99.90
32536;DHT22;18974;50.838;4.636;2023-02-16T00:41:42;5.90;99.90
32536;DHT22;18974;50.838;4.636;2023-02-16T00:44:40;5.70;99.90
32536;DHT22;18974;50.838;4.636;2023-02-16T00:47:28;5.70;99.90
32536;DHT22;18974;50.838;4.636;2023-02-16T00:49:54;5.60;99.90
32536;DHT22;18974;50.838;4.636;2023-02-16T00:52:33;5.70;99.90
32536;DHT22;18974;50.838;4.636;2023-02-16T00:55:01;5.70;99.90
32536;DHT22;18974;50.838;4.636;2023-02-16T00:57:33;5.50;99.90
32536;DHT22;18974;50.838;4.636;2023-02-16T01:00:06;5.60;99.90
32536;DHT22;18974;50.838;4.636;2023-02-16T01:02:33;5.60;99.90
32536;DHT22;18974;50.838;4.636;2023-02-16T01:04:59;5.60;99.90
32536;DHT22;18974;50.838;4.636;2023-02-16T01:07:24;5.50;99.90
32536;DHT22;18974;50.838;4.636;2023-02-16T01:10:09;5.60;99.90
32536;DHT22;18974;50.838;4.636;2023-02-16T01:12:54;5.70;99.90
32536;DHT22;18974;50.838;4.636;2023-02-16T01:15:23;5.80;99.90
32536;DHT22;18974;50.838;4.636;2023-02-16T01:17:50;5.90;99.90
32536;DHT22;18974;50.838;4.636;2023-02-16T01:20:19;6.10;99.90
32536;DHT22;18974;50.838;4.636;2023-02-16T01:22:45;6.10;99.90
32536;DHT22;18974;50.838;4.636;2023-02-16T01:25:11;6.10;99.90
32536;DHT22;18974;50.838;4.636;2023-02-16T01:27:38;6.20;99.90
32536;DHT22;18974;50.838;4.636;2023-02-16T01:30:05;6.10;99.90
32536;DHT22;18974;50.838;4.636;2023-02-16T01:32:31;6.00;99.90
32536;DHT22;18974;50.838;4.636;2023-02-16T01:34:57;6.10;99.90
32536;DHT22;18974;50.838;4.636;2023-02-16T01:37:23;6.00;99.90
32536;DHT22;18974;50.838;4.636;2023-02-16T01:39:49;6.00;99.90
32536;DHT22;18974;50.838;4.636;2023-02-16T01:45:12;6.00;99.90
32536;DHT22;18974;50.838;4.636;2023-02-16T01:47:53;6.10;99.90
32536;DHT22;18974;50.838;4.636;2023-02-16T01:50:23;6.00;99.90
32536;DHT22;18974;50.838;4.636;2023-02-16T01:52:57;6.00;99.90
32536;DHT22;18974;50.838;4.636;2023-02-16T01:58:03;6.10;99.90
32536;DHT22;18974;50.838;4.636;2023-02-16T02:03:27;6.10;99.90
32536;DHT22;18974;50.838;4.636;2023-02-16T02:06:20;6.10;99.90
32536;DHT22;18974;50.838;4.636;2023-02-16T02:09:07;6.10;99.90
32536;DHT22;18974;50.838;4.636;2023-02-16T02:11:44;6.10;99.90
32536;DHT22;18974;50.838;4.636;2023-02-16T02:14:26;6.10;99.90
32536;DHT22;18974;50.838;4.636;2023-02-16T02:17:17;6.20;99.90
32536;DHT22;18974;50.838;4.636;2023-02-16T02:22:57;6.30;99.90
32536;DHT22;18974;50.838;4.636;2023-02-16T02:31:40;6.00;99.90
32536;DHT22;18974;50.838;4.636;2023-02-16T02:37:24;5.90;99.90
32536;DHT22;18974;50.838;4.636;2023-02-16T02:42:40;6.00;99.90
32536;DHT22;18974;50.838;4.636;2023-02-16T02:45:33;6.10;99.90
32536;DHT22;18974;50.838;4.636;2023-02-16T02:47:56;6.10;99.90
32536;DHT22;18974;50.838;4.636;2023-02-16T02:53:28;6.10;99.90
32536;DHT22;18974;50.838;4.636;2023-02-16T02:55:55;6.30;99.90
32536;DHT22;18974;50.838;4.636;2023-02-16T02:58:42;6.30;99.90
32536;DHT22;18974;50.838;4.636;2023-02-16T03:01:30;6.30;99.90
32536;DHT22;18974;50.838;4.636;2023-02-16T03:03:56;6.30;99.90
32536;DHT22;18974;50.838;4.636;2023-02-16T03:06:25;6.30;99.90
32536;DHT22;18974;50.838;4.636;2023-02-16T03:08:59;6.30;99.90
32536;DHT22;18974;50.838;4.636;2023-02-16T03:11:27;6.40;99.90
32536;DHT22;18974;50.838;4.636;2023-02-16T03:14:21;6.40;99.90
32536;DHT22;18974;50.838;4.636;2023-02-16T03:16:56;6.40;99.90
32536;DHT22;18974;50.838;4.636;2023-02-16T03:19:42;6.40;99.90
32536;DHT22;18974;50.838;4.636;2023-02-16T03:22:28;6.40;99.90
32536;DHT22;18974;50.838;4.636;2023-02-16T03:25:13;6.20;99.90
32536;DHT22;18974;50.838;4.636;2023-02-16T03:27:59;6.10;99.90
32536;DHT22;18974;50.838;4.636;2023-02-16T03:30:46;6.10;99.90
32536;DHT22;18974;50.838;4.636;2023-02-16T03:33:13;6.10;99.90
32536;DHT22;18974;50.838;4.636;2023-02-16T03:35:39;6.00;99.90
32536;DHT22;18974;50.838;4.636;2023-02-16T03:38:05;6.00;99.90
32536;DHT22;18974;50.838;4.636;2023-02-16T03:40:32;6.10;99.90
32536;DHT22;18974;50.838;4.636;2023-02-16T03:43:04;6.10;99.90
32536;DHT22;18974;50.838;4.636;2023-02-16T03:45:31;6.10;99.90
32536;DHT22;18974;50.838;4.636;2023-02-16T03:47:59;6.10;99.90
32536;DHT22;18974;50.838;4.636;2023-02-16T03:50:25;6.20;99.90
32536;DHT22;18974;50.838;4.636;2023-02-16T03:52:52;6.10;99.90
32536;DHT22;18974;50.838;4.636;2023-02-16T03:55:17;6.20;99.90
32536;DHT22;18974;50.838;4.636;2023-02-16T03:57:43;6.10;99.90
32536;DHT22;18974;50.838;4.636;2023-02-16T04:00:10;6.10;99.90
32536;DHT22;18974;50.838;4.636;2023-02-16T04:02:35;6.10;99.90
32536;DHT22;18974;50.838;4.636;2023-02-16T04:05:01;6.20;99.90
32536;DHT22;18974;50.838;4.636;2023-02-16T04:07:27;6.20;99.90
32536;DHT22;18974;50.838;4.636;2023-02-16T04:09:52;6.30;99.90
32536;DHT22;18974;50.838;4.636;2023-02-16T04:12:18;6.40;99.90
32536;DHT22;18974;50.838;4.636;2023-02-16T04:15:04;6.30;99.90
32536;DHT22;18974;50.838;4.636;2023-02-16T04:17:30;6.40;99.90
32536;DHT22;18974;50.838;4.636;2023-02-16T04:19:56;6.50;99.90
32536;DHT22;18974;50.838;4.636;2023-02-16T04:22:21;6.40;99.90
32536;DHT22;18974;50.838;4.636;2023-02-16T04:24:47;6.50;99.90
32536;DHT22;18974;50.838;4.636;2023-02-16T04:27:12;6.50;99.90
32536;DHT22;18974;50.838;4.636;2023-02-16T04:29:38;6.50;99.90
32536;DHT22;18974;50.838;4.636;2023-02-16T04:32:04;6.60;99.90
32536;DHT22;18974;50.838;4.636;2023-02-16T04:34:30;6.70;99.90
32536;DHT22;18974;50.838;4.636;2023-02-16T04:36:55;6.70;99.90
32536;DHT22;18974;50.838;4.636;2023-02-16T04:39:21;6.80;99.90
32536;DHT22;18974;50.838;4.636;2023-02-16T04:41:48;6.80;99.90
32536;DHT22;18974;50.838;4.636;2023-02-16T04:44:13;6.70;99.90
32536;DHT22;18974;50.838;4.636;2023-02-16T04:46:39;6.80;99.90
32536;DHT22;18974;50.838;4.636;2023-02-16T04:49:04;6.80;99.90
32536;DHT22;18974;50.838;4.636;2023-02-16T04:51:30;6.90;99.90
32536;DHT22;18974;50.838;4.636;2023-02-16T04:53:56;7.00;99.90
32536;DHT22;18974;50.838;4.636;2023-02-16T04:56:21;7.00;99.90
32536;DHT22;18974;50.838;4.636;2023-02-16T04:58:47;7.00;99.90
32536;DHT22;18974;50.838;4.636;2023-02-16T05:01:20;6.90;99.90
32536;DHT22;18974;50.838;4.636;2023-02-16T05:03:46;6.90;99.90
32536;DHT22;18974;50.838;4.636;2023-02-16T05:06:12;6.90;99.90
32536;DHT22;18974;50.838;4.636;2023-02-16T05:08:38;6.90;99.90
32536;DHT22;18974;50.838;4.636;2023-02-16T05:11:03;6.90;99.90
32536;DHT22;18974;50.838;4.636;2023-02-16T05:13:47;6.90;99.90
32536;DHT22;18974;50.838;4.636;2023-02-16T05:16:32;7.00;99.90
32536;DHT22;18974;50.838;4.636;2023-02-16T05:18:57;6.90;99.90
32536;DHT22;18974;50.838;4.636;2023-02-16T05:21:23;7.00;99.90
32536;DHT22;18974;50.838;4.636;2023-02-16T05:24:04;7.10;99.90
32536;DHT22;18974;50.838;4.636;2023-02-16T05:26:31;7.00;99.90
32536;DHT22;18974;50.838;4.636;2023-02-16T05:28:57;7.10;99.90
32536;DHT22;18974;50.838;4.636;2023-02-16T05:31:24;7.10;99.90
32536;DHT22;18974;50.838;4.636;2023-02-16T05:33:50;7.20;99.90
32536;DHT22;18974;50.838;4.636;2023-02-16T05:36:16;7.20;99.90
32536;DHT22;18974;50.838;4.636;2023-02-16T05:38:42;7.10;99.90
32536;DHT22;18974;50.838;4.636;2023-02-16T05:41:07;7.10;99.90
32536;DHT22;18974;50.838;4.636;2023-02-16T05:43:33;7.10;99.90
32536;DHT22;18974;50.838;4.636;2023-02-16T05:45:59;7.20;99.90
32536;DHT22;18974;50.838;4.636;2023-02-16T05:48:24;7.20;99.90
32536;DHT22;18974;50.838;4.636;2023-02-16T05:50:53;7.20;99.90
32536;DHT22;18974;50.838;4.636;2023-02-16T05:53:19;7.20;99.90
32536;DHT22;18974;50.838;4.636;2023-02-16T05:55:44;7.20;99.90
32536;DHT22;18974;50.838;4.636;2023-02-16T05:58:10;7.20;99.90
32536;DHT22;18974;50.838;4.636;2023-02-16T06:00:36;7.30;99.90
32536;DHT22;18974;50.838;4.636;2023-02-16T06:03:02;7.30;99.90
32536;DHT22;18974;50.838;4.636;2023-02-16T06:05:28;7.10;99.90
32536;DHT22;18974;50.838;4.636;2023-02-16T06:07:54;7.10;99.90
32536;DHT22;18974;50.838;4.636;2023-02-16T06:10:20;7.20;99.90
32536;DHT22;18974;50.838;4.636;2023-02-16T06:12:46;7.10;99.90
32536;DHT22;18974;50.838;4.636;2023-02-16T06:15:11;7.10;99.90
32536;DHT22;18974;50.838;4.636;2023-02-16T06:17:37;7.10;99.90
32536;DHT22;18974;50.838;4.636;2023-02-16T06:20:04;7.20;99.90
32536;DHT22;18974;50.838;4.636;2023-02-16T06:22:29;7.20;99.90
32536;DHT22;18974;50.838;4.636;2023-02-16T06:24:55;7.40;99.90
32536;DHT22;18974;50.838;4.636;2023-02-16T06:27:21;7.40;99.90
32536;DHT22;18974;50.838;4.636;2023-02-16T06:29:47;7.40;99.90
32536;DHT22;18974;50.838;4.636;2023-02-16T06:32:13;7.50;99.90
32536;DHT22;18974;50.838;4.636;2023-02-16T06:34:38;7.40;99.90
32536;DHT22;18974;50.838;4.636;2023-02-16T06:37:05;7.50;99.90
32536;DHT22;18974;50.838;4.636;2023-02-16T06:39:31;7.40;99.90
32536;DHT22;18974;50.838;4.636;2023-02-16T06:41:57;7.50;99.90
32536;DHT22;18974;50.838;4.636;2023-02-16T06:44:22;7.60;99.90
32536;DHT22;18974;50.838;4.636;2023-02-16T06:46:48;7.60;99.90
32536;DHT22;18974;50.838;4.636;2023-02-16T06:49:16;7.60;99.90
32536;DHT22;18974;50.838;4.636;2023-02-16T06:51:42;7.70;99.90
32536;DHT22;18974;50.838;4.636;2023-02-16T06:54:09;7.70;99.90
32536;DHT22;18974;50.838;4.636;2023-02-16T06:56:34;7.70;99.90
32536;DHT22;18974;50.838;4.636;2023-02-16T06:59:00;7.70;99.90
32536;DHT22;18974;50.838;4.636;2023-02-16T07:01:27;7.80;99.90
32536;DHT22;18974;50.838;4.636;2023-02-16T07:03:54;7.90;99.90
32536;DHT22;18974;50.838;4.636;2023-02-16T07:06:21;7.80;99.90
32536;DHT22;18974;50.838;4.636;2023-02-16T07:08:47;7.80;99.90
32536;DHT22;18974;50.838;4.636;2023-02-16T07:11:12;7.80;99.90
32536;DHT22;18974;50.838;4.636;2023-02-16T07:13:38;7.80;99.90
32536;DHT22;18974;50.838;4.636;2023-02-16T07:16:05;7.80;99.90
32536;DHT22;18974;50.838;4.636;2023-02-16T07:18:31;7.70;99.90
32536;DHT22;18974;50.838;4.636;2023-02-16T07:20:57;7.80;99.90
32536;DHT22;18974;50.838;4.636;2023-02-16T07:23:22;7.80;99.90
32536;DHT22;18974;50.838;4.636;2023-02-16T07:25:48;7.80;99.90
32536;DHT22;18974;50.838;4.636;2023-02-16T07:28:13;7.80;99.90
32536;DHT22;18974;50.838;4.636;2023-02-16T07:30:39;7.90;99.90
32536;DHT22;18974;50.838;4.636;2023-02-16T07:33:05;7.90;99.90
32536;DHT22;18974;50.838;4.636;2023-02-16T07:35:32;8.00;99.90
32536;DHT22;18974;50.838;4.636;2023-02-16T07:37:57;7.90;99.90
32536;DHT22;18974;50.838;4.636;2023-02-16T07:40:23;7.90;99.90
32536;DHT22;18974;50.838;4.636;2023-02-16T07:42:49;7.90;99.90
32536;DHT22;18974;50.838;4.636;2023-02-16T07:45:15;8.00;99.90
32536;DHT22;18974;50.838;4.636;2023-02-16T07:47:41;8.00;99.90
32536;DHT22;18974;50.838;4.636;2023-02-16T07:50:07;8.10;99.90
32536;DHT22;18974;50.838;4.636;2023-02-16T07:52:33;8.20;99.90
32536;DHT22;18974;50.838;4.636;2023-02-16T07:54:59;8.20;99.90
32536;DHT22;18974;50.838;4.636;2023-02-16T07:57:28;8.20;99.90
32536;DHT22;18974;50.838;4.636;2023-02-16T07:59:55;8.20;99.90
32536;DHT22;18974;50.838;4.636;2023-02-16T08:02:21;8.20;99.90
32536;DHT22;18974;50.838;4.636;2023-02-16T08:04:48;8.30;99.90
32536;DHT22;18974;50.838;4.636;2023-02-16T08:07:15;8.30;99.90
32536;DHT22;18974;50.838;4.636;2023-02-16T08:09:41;8.50;99.90
32536;DHT22;18974;50.838;4.636;2023-02-16T08:12:11;8.50;99.90
32536;DHT22;18974;50.838;4.636;2023-02-16T08:14:37;8.40;99.90
32536;DHT22;18974;50.838;4.636;2023-02-16T08:17:05;8.50;99.90
32536;DHT22;18974;50.838;4.636;2023-02-16T08:19:32;8.50;99.90
32536;DHT22;18974;50.838;4.636;2023-02-16T08:21:59;8.60;99.90
32536;DHT22;18974;50.838;4.636;2023-02-16T08:24:27;8.60;99.90
32536;DHT22;18974;50.838;4.636;2023-02-16T08:26:53;8.60;99.90
32536;DHT22;18974;50.838;4.636;2023-02-16T08:29:23;8.60;99.90
32536;DHT22;18974;50.838;4.636;2023-02-16T08:31:50;8.80;99.90
32536;DHT22;18974;50.838;4.636;2023-02-16T08:34:17;8.80;99.90
32536;DHT22;18974;50.838;4.636;2023-02-16T08:36:45;8.90;99.90
32536;DHT22;18974;50.838;4.636;2023-02-16T08:39:14;8.90;99.90
32536;DHT22;18974;50.838;4.636;2023-02-16T08:41:41;8.90;99.90
32536;DHT22;18974;50.838;4.636;2023-02-16T08:44:08;8.90;99.90
32536;DHT22;18974;50.838;4.636;2023-02-16T08:46:35;8.90;99.90
32536;DHT22;18974;50.838;4.636;2023-02-16T08:49:04;9.00;99.90
32536;DHT22;18974;50.838;4.636;2023-02-16T08:51:33;8.90;99.90
32536;DHT22;18974;50.838;4.636;2023-02-16T08:54:00;9.00;99.90
32536;DHT22;18974;50.838;4.636;2023-02-16T08:56:27;8.80;99.90
32536;DHT22;18974;50.838;4.636;2023-02-16T08:58:58;9.00;99.90
32536;DHT22;18974;50.838;4.636;2023-02-16T09:01:24;9.10;99.90
32536;DHT22;18974;50.838;4.636;2023-02-16T09:03:50;9.20;99.90
32536;DHT22;18974;50.838;4.636;2023-02-16T09:06:18;9.20;99.90
32536;DHT22;18974;50.838;4.636;2023-02-16T09:08:54;9.20;99.90
32536;DHT22;18974;50.838;4.636;2023-02-16T09:11:21;9.20;99.90
32536;DHT22;18974;50.838;4.636;2023-02-16T09:13:48;9.20;99.90
32536;DHT22;18974;50.838;4.636;2023-02-16T09:16:17;9.30;99.90
32536;DHT22;18974;50.838;4.636;2023-02-16T09:18:43;9.40;99.90
32536;DHT22;18974;50.838;4.636;2023-02-16T09:21:15;9.30;99.90
32536;DHT22;18974;50.838;4.636;2023-02-16T09:23:43;9.40;99.90
32536;DHT22;18974;50.838;4.636;2023-02-16T09:26:11;9.30;99.90
32536;DHT22;18974;50.838;4.636;2023-02-16T09:28:38;9.20;99.90
32536;DHT22;18974;50.838;4.636;2023-02-16T09:33:38;9.10;99.90
32536;DHT22;18974;50.838;4.636;2023-02-16T09:36:05;9.10;99.90
32536;DHT22;18974;50.838;4.636;2023-02-16T09:38:31;9.10;99.90
32536;DHT22;18974;50.838;4.636;2023-02-16T09:40:57;9.20;99.90
32536;DHT22;18974;50.838;4.636;2023-02-16T09:46:28;9.40;99.90
32536;DHT22;18974;50.838;4.636;2023-02-16T09:48:55;9.50;99.90
32536;DHT22;18974;50.838;4.636;2023-02-16T09:51:26;9.50;99.90
32536;DHT22;18974;50.838;4.636;2023-02-16T09:54:03;9.50;99.90
32536;DHT22;18974;50.838;4.636;2023-02-16T09:56:37;9.50;99.90
32536;DHT22;18974;50.838;4.636;2023-02-16T09:59:38;9.60;99.90
32536;DHT22;18974;50.838;4.636;2023-02-16T10:07:57;9.70;99.90
32536;DHT22;18974;50.838;4.636;2023-02-16T10:10:38;9.90;99.90
32536;DHT22;18974;50.838;4.636;2023-02-16T10:13:13;10.00;99.90
32536;DHT22;18974;50.838;4.636;2023-02-16T10:15:43;10.00;99.90
32536;DHT22;18974;50.838;4.636;2023-02-16T10:18:32;10.00;99.90
32536;DHT22;18974;50.838;4.636;2023-02-16T10:21:02;10.10;99.90
32536;DHT22;18974;50.838;4.636;2023-02-16T10:23:48;10.20;99.90
32536;DHT22;18974;50.838;4.636;2023-02-16T10:28:58;10.30;99.90
32536;DHT22;18974;50.838;4.636;2023-02-16T10:34:38;10.40;99.90
32536;DHT22;18974;50.838;4.636;2023-02-16T10:47:54;10.90;99.90
32536;DHT22;18974;50.838;4.636;2023-02-16T10:50:35;10.90;99.90
32536;DHT22;18974;50.838;4.636;2023-02-16T10:53:15;10.90;99.90
32536;DHT22;18974;50.838;4.636;2023-02-16T10:55:42;11.00;99.90
32536;DHT22;18974;50.838;4.636;2023-02-16T10:58:24;10.80;99.90
32536;DHT22;18974;50.838;4.636;2023-02-16T11:03:42;10.90;99.90
32536;DHT22;18974;50.838;4.636;2023-02-16T11:06:15;11.10;99.90
32536;DHT22;18974;50.838;4.636;2023-02-16T11:08:54;11.30;99.90
32536;DHT22;18974;50.838;4.636;2023-02-16T11:11:34;11.50;99.90
32536;DHT22;18974;50.838;4.636;2023-02-16T11:14:06;11.50;99.90
32536;DHT22;18974;50.838;4.636;2023-02-16T11:16:34;11.70;99.90
32536;DHT22;18974;50.838;4.636;2023-02-16T11:19:17;11.60;99.90
32536;DHT22;18974;50.838;4.636;2023-02-16T11:24:22;11.70;99.90
32536;DHT22;18974;50.838;4.636;2023-02-16T11:27:05;11.80;99.90
32536;DHT22;18974;50.838;4.636;2023-02-16T11:29:32;11.80;99.90
32536;DHT22;18974;50.838;4.636;2023-02-16T11:31:58;11.70;99.90
32536;DHT22;18974;50.838;4.636;2023-02-16T11:34:39;11.80;99.90
32536;DHT22;18974;50.838;4.636;2023-02-16T11:39:52;12.20;99.90
32536;DHT22;18974;50.838;4.636;2023-02-16T11:42:27;12.20;99.90
32536;DHT22;18974;50.838;4.636;2023-02-16T11:44:54;12.30;99.90
32536;DHT22;18974;50.838;4.636;2023-02-16T11:49:48;12.30;99.90
32536;DHT22;18974;50.838;4.636;2023-02-16T11:54:48;12.40;99.90
32536;DHT22;18974;50.838;4.636;2023-02-16T11:57:14;12.60;99.90
32536;DHT22;18974;50.838;4.636;2023-02-16T11:59:47;12.70;99.90
32536;DHT22;18974;50.838;4.636;2023-02-16T12:07:57;12.80;99.90
32536;DHT22;18974;50.838;4.636;2023-02-16T12:10:30;12.60;99.90
32536;DHT22;18974;50.838;4.636;2023-02-16T12:18:58;12.40;99.90
32536;DHT22;18974;50.838;4.636;2023-02-16T12:22:00;12.70;99.90
32536;DHT22;18974;50.838;4.636;2023-02-16T12:27:32;13.10;99.90
32536;DHT22;18974;50.838;4.636;2023-02-16T12:32:56;13.10;99.90
32536;DHT22;18974;50.838;4.636;2023-02-16T12:38:17;12.90;99.90
32536;DHT22;18974;50.838;4.636;2023-02-16T12:43:47;13.00;99.90
32536;DHT22;18974;50.838;4.636;2023-02-16T12:48:57;12.90;99.90
32536;DHT22;18974;50.838;4.636;2023-02-16T12:51:36;12.90;99.90
32536;DHT22;18974;50.838;4.636;2023-02-16T12:54:23;12.90;99.90
32536;DHT22;18974;50.838;4.636;2023-02-16T13:02:16;13.10;99.90
32536;DHT22;18974;50.838;4.636;2023-02-16T13:05:24;13.20;99.90
32536;DHT22;18974;50.838;4.636;2023-02-16T13:07:56;13.20;99.90
32536;DHT22;18974;50.838;4.636;2023-02-16T13:10:46;13.40;99.90
32536;DHT22;18974;50.838;4.636;2023-02-16T13:13:20;13.40;99.90
32536;DHT22;18974;50.838;4.636;2023-02-16T13:16:02;13.40;99.90
32536;DHT22;18974;50.838;4.636;2023-02-16T13:18:32;13.50;99.90
32536;DHT22;18974;50.838;4.636;2023-02-16T13:21:20;13.70;99.90
32536;DHT22;18974;50.838;4.636;2023-02-16T13:29:46;14.00;99.90
32536;DHT22;18974;50.838;4.636;2023-02-16T13:32:42;14.00;99.90
32536;DHT22;18974;50.838;4.636;2023-02-16T13:41:11;13.70;99.90
32536;DHT22;18974;50.838;4.636;2023-02-16T13:43:54;13.80;99.90
32536;DHT22;18974;50.838;4.636;2023-02-16T13:46:27;14.00;99.90
32536;DHT22;18974;50.838;4.636;2023-02-16T13:48:53;14.20;99.90
32536;DHT22;18974;50.838;4.636;2023-02-16T13:51:25;14.30;99.90
32536;DHT22;18974;50.838;4.636;2023-02-16T13:53:58;14.30;99.90
32536;DHT22;18974;50.838;4.636;2023-02-16T13:58:55;14.30;99.90
32536;DHT22;18974;50.838;4.636;2023-02-16T14:03:59;14.40;99.90
32536;DHT22;18974;50.838;4.636;2023-02-16T14:11:59;14.40;99.90
32536;DHT22;18974;50.838;4.636;2023-02-16T14:14:35;14.30;99.90
32536;DHT22;18974;50.838;4.636;2023-02-16T14:19:57;14.10;99.90
32536;DHT22;18974;50.838;4.636;2023-02-16T14:30:34;14.00;99.90
32536;DHT22;18974;50.838;4.636;2023-02-16T14:38:28;13.70;99.90
32536;DHT22;18974;50.838;4.636;2023-02-16T14:41:00;13.60;99.90
32536;DHT22;18974;50.838;4.636;2023-02-16T14:43:39;13.80;99.90
32536;DHT22;18974;50.838;4.636;2023-02-16T15:00:48;13.80;99.90
32536;DHT22;18974;50.838;4.636;2023-02-16T15:03:17;13.80;99.90
32536;DHT22;18974;50.838;4.636;2023-02-16T15:05:57;13.60;99.90
32536;DHT22;18974;50.838;4.636;2023-02-16T15:08:26;13.60;99.90
32536;DHT22;18974;50.838;4.636;2023-02-16T15:11:19;13.60;99.90
32536;DHT22;18974;50.838;4.636;2023-02-16T15:13:46;13.60;99.90
32536;DHT22;18974;50.838;4.636;2023-02-16T15:16:16;13.70;99.90
32536;DHT22;18974;50.838;4.636;2023-02-16T15:18:47;13.60;99.90
32536;DHT22;18974;50.838;4.636;2023-02-16T15:21:18;13.50;99.90
32536;DHT22;18974;50.838;4.636;2023-02-16T15:23:56;13.50;99.90
32536;DHT22;18974;50.838;4.636;2023-02-16T15:26:25;13.50;99.90
32536;DHT22;18974;50.838;4.636;2023-02-16T15:28:57;13.50;99.90
32536;DHT22;18974;50.838;4.636;2023-02-16T15:31:34;13.40;99.90
32536;DHT22;18974;50.838;4.636;2023-02-16T15:34:03;13.20;99.90
32536;DHT22;18974;50.838;4.636;2023-02-16T15:36:34;13.20;99.90
32536;DHT22;18974;50.838;4.636;2023-02-16T15:39:06;13.30;99.90
32536;DHT22;18974;50.838;4.636;2023-02-16T15:41:35;13.30;99.90
32536;DHT22;18974;50.838;4.636;2023-02-16T15:44:02;13.20;99.90
32536;DHT22;18974;50.838;4.636;2023-02-16T15:46:41;13.20;99.90
32536;DHT22;18974;50.838;4.636;2023-02-16T15:49:11;13.20;99.90
32536;DHT22;18974;50.838;4.636;2023-02-16T15:51:39;13.10;99.90
32536;DHT22;18974;50.838;4.636;2023-02-16T15:54:29;12.90;99.90
32536;DHT22;18974;50.838;4.636;2023-02-16T15:59:45;12.80;99.90
32536;DHT22;18974;50.838;4.636;2023-02-16T16:04:41;12.80;99.90
32536;DHT22;18974;50.838;4.636;2023-02-16T16:07:12;12.80;99.90
32536;DHT22;18974;50.838;4.636;2023-02-16T16:09:39;12.60;99.90
32536;DHT22;18974;50.838;4.636;2023-02-16T16:12:09;12.40;99.90
32536;DHT22;18974;50.838;4.636;2023-02-16T16:14:39;12.20;99.90
32536;DHT22;18974;50.838;4.636;2023-02-16T16:17:11;12.20;99.90
32536;DHT22;18974;50.838;4.636;2023-02-16T16:19:37;12.10;99.90
32536;DHT22;18974;50.838;4.636;2023-02-16T16:24:51;12.00;99.90
32536;DHT22;18974;50.838;4.636;2023-02-16T16:27:31;12.10;99.90
32536;DHT22;18974;50.838;4.636;2023-02-16T16:32:40;12.10;99.90
32536;DHT22;18974;50.838;4.636;2023-02-16T16:35:33;12.20;99.90
32536;DHT22;18974;50.838;4.636;2023-02-16T16:38:00;12.20;99.90
32536;DHT22;18974;50.838;4.636;2023-02-16T16:40:32;12.20;99.90
32536;DHT22;18974;50.838;4.636;2023-02-16T16:45:37;12.10;99.90
32536;DHT22;18974;50.838;4.636;2023-02-16T16:48:28;12.10;99.90
32536;DHT22;18974;50.838;4.636;2023-02-16T16:51:12;12.10;99.90
32536;DHT22;18974;50.838;4.636;2023-02-16T16:54:11;12.10;99.90
32536;DHT22;18974;50.838;4.636;2023-02-16T16:56:39;11.90;99.90
32536;DHT22;18974;50.838;4.636;2023-02-16T16:59:05;11.70;99.90
32536;DHT22;18974;50.838;4.636;2023-02-16T17:01:31;11.50;99.90
32536;DHT22;18974;50.838;4.636;2023-02-16T17:03:57;11.50;99.90
32536;DHT22;18974;50.838;4.636;2023-02-16T17:06:24;11.40;99.90
32536;DHT22;18974;50.838;4.636;2023-02-16T17:08:50;11.30;99.90
32536;DHT22;18974;50.838;4.636;2023-02-16T17:11:27;11.30;99.90
32536;DHT22;18974;50.838;4.636;2023-02-16T17:13:55;11.30;99.90
32536;DHT22;18974;50.838;4.636;2023-02-16T17:16:27;11.10;99.90
32536;DHT22;18974;50.838;4.636;2023-02-16T17:18:53;11.20;99.90
32536;DHT22;18974;50.838;4.636;2023-02-16T17:21:19;11.20;99.90
32536;DHT22;18974;50.838;4.636;2023-02-16T17:23:45;11.20;99.90
32536;DHT22;18974;50.838;4.636;2023-02-16T17:26:11;11.20;99.90
32536;DHT22;18974;50.838;4.636;2023-02-16T17:28:36;11.20;99.90
32536;DHT22;18974;50.838;4.636;2023-02-16T17:31:03;11.10;99.90
32536;DHT22;18974;50.838;4.636;2023-02-16T17:33:29;11.20;99.90
32536;DHT22;18974;50.838;4.636;2023-02-16T17:35:54;11.20;99.90
32536;DHT22;18974;50.838;4.636;2023-02-16T17:38:21;11.20;99.90
32536;DHT22;18974;50.838;4.636;2023-02-16T17:40:49;11.20;99.90
32536;DHT22;18974;50.838;4.636;2023-02-16T17:43:16;11.20;99.90
32536;DHT22;18974;50.838;4.636;2023-02-16T17:45:43;11.30;99.90
32536;DHT22;18974;50.838;4.636;2023-02-16T17:48:19;11.30;99.90
32536;DHT22;18974;50.838;4.636;2023-02-16T17:50:46;11.30;99.90
32536;DHT22;18974;50.838;4.636;2023-02-16T17:53:14;11.30;99.90
32536;DHT22;18974;50.838;4.636;2023-02-16T17:55:40;11.30;99.90
32536;DHT22;18974;50.838;4.636;2023-02-16T17:58:05;11.30;99.90
32536;DHT22;18974;50.838;4.636;2023-02-16T18:00:32;11.30;99.90
32536;DHT22;18974;50.838;4.636;2023-02-16T18:02:58;11.30;99.90
32536;DHT22;18974;50.838;4.636;2023-02-16T18:05:23;11.40;99.90
32536;DHT22;18974;50.838;4.636;2023-02-16T18:07:49;11.40;99.90
32536;DHT22;18974;50.838;4.636;2023-02-16T18:10:50;11.50;99.90
32536;DHT22;18974;50.838;4.636;2023-02-16T18:13:15;11.50;99.90
32536;DHT22;18974;50.838;4.636;2023-02-16T18:15:43;11.50;99.90
32536;DHT22;18974;50.838;4.636;2023-02-16T18:18:16;11.50;99.90
32536;DHT22;18974;50.838;4.636;2023-02-16T18:20:42;11.50;99.90
32536;DHT22;18974;50.838;4.636;2023-02-16T18:23:08;11.60;99.90
32536;DHT22;18974;50.838;4.636;2023-02-16T18:25:34;11.50;99.90
32536;DHT22;18974;50.838;4.636;2023-02-16T18:28:00;11.50;99.90
32536;DHT22;18974;50.838;4.636;2023-02-16T18:30:26;11.50;99.90
32536;DHT22;18974;50.838;4.636;2023-02-16T18:32:51;11.50;99.90
32536;DHT22;18974;50.838;4.636;2023-02-16T18:35:18;11.50;99.90
32536;DHT22;18974;50.838;4.636;2023-02-16T18:37:44;11.50;99.90
32536;DHT22;18974;50.838;4.636;2023-02-16T18:40:15;11.50;99.90
32536;DHT22;18974;50.838;4.636;2023-02-16T18:42:41;11.40;99.90
32536;DHT22;18974;50.838;4.636;2023-02-16T18:45:08;11.40;99.90
32536;DHT22;18974;50.838;4.636;2023-02-16T18:47:34;11.50;99.90
32536;DHT22;18974;50.838;4.636;2023-02-16T18:50:01;11.50;99.90